createdAt,value
2023-02-02T05:02:47.262Z,99596.50
2023-02-02T05:06:58.772Z,99595.59
2023-02-02T05:11:11.750Z,99601.69
2023-02-02T05:15:23.589Z,99616.81
2023-02-02T05:19:35.255Z,99626.22
2023-02-02T05:23:47.102Z,99624.22
2023-02-02T05:27:58.661Z,99633.06
2023-02-02T05:32:10.234Z,99632.34
2023-02-02T05:36:21.853Z,99640.34
2023-02-02T05:40:33.387Z,99637.53
2023-02-02T05:44:44.915Z,99644.50
2023-02-02T05:48:58.765Z,99631.53
2023-02-02T05:53:12.965Z,99640.13
2023-02-02T05:57:24.460Z,99626.00
2023-02-02T06:01:36.117Z,99626.34
2023-02-02T06:05:47.707Z,99627.16
2023-02-02T06:09:59.365Z,99640.25
2023-02-02T06:14:10.987Z,99645.78
2023-02-02T06:18:22.520Z,99645.44
2023-02-02T06:22:34.047Z,99650.03
2023-02-02T06:26:45.649Z,99652.50
2023-02-02T06:30:57.349Z,99659.38
2023-02-02T06:35:09.167Z,99646.16
2023-02-02T06:39:20.672Z,99654.75
2023-02-02T06:43:32.319Z,99646.03
2023-02-02T06:47:43.856Z,99654.75
2023-02-02T06:51:55.378Z,99663.22
2023-02-02T06:56:09.875Z,99665.63
2023-02-02T07:00:21.681Z,99669.06
2023-02-02T07:04:33.163Z,99664.91
2023-02-02T07:08:44.711Z,99671.53
2023-02-02T07:12:56.219Z,99658.03
2023-02-02T07:17:07.734Z,99659.63
2023-02-02T07:21:21.883Z,99647.47
2023-02-02T07:25:33.379Z,99653.59
2023-02-02T07:29:44.871Z,99644.38
2023-02-02T07:33:56.636Z,99641.06
2023-02-02T07:38:08.157Z,99637.53
2023-02-02T07:42:19.688Z,99666.78
2023-02-02T07:46:31.836Z,99661.97
2023-02-02T07:50:43.402Z,99673.88
2023-02-02T07:55:02.534Z,99684.25
2023-02-02T07:59:24.201Z,99704.06
2023-02-02T08:03:36.892Z,99716.34
2023-02-02T08:07:48.457Z,99702.19
2023-02-02T08:12:01.725Z,99719.53
2023-02-02T08:16:13.359Z,99730.63
2023-02-02T08:20:24.906Z,99727.78
2023-02-02T08:24:40.480Z,99732.97
2023-02-02T08:28:54.953Z,99738.03
2023-02-02T08:33:06.481Z,99741.59
2023-02-02T08:37:18.397Z,99741.34
2023-02-02T08:41:30.371Z,99748.63
2023-02-02T08:46:02.111Z,99738.75
2023-02-02T08:50:17.722Z,99741.69
2023-02-02T08:54:29.268Z,99751.25
2023-02-02T08:58:48.396Z,99744.56
2023-02-02T09:02:59.961Z,99733.81
2023-02-02T09:07:11.518Z,99723.09
2023-02-02T09:11:23.114Z,99722.72
2023-02-02T09:15:34.618Z,99728.63
2023-02-02T09:19:46.186Z,99731.31
2023-02-02T09:23:57.753Z,99736.66
2023-02-02T09:28:09.254Z,99744.09
2023-02-02T09:32:20.772Z,99754.81
2023-02-02T09:36:33.112Z,99758.34
2023-02-02T09:40:44.764Z,99772.84
2023-02-02T09:45:01.837Z,99774.03
2023-02-02T09:49:23.344Z,99787.00
2023-02-02T09:53:55.144Z,99788.78
2023-02-02T09:58:12.999Z,99781.22
2023-02-02T10:02:32.267Z,99777.44
2023-02-02T10:06:46.162Z,99785.72
2023-02-02T10:10:57.716Z,99789.63
2023-02-02T10:15:17.472Z,99794.09
2023-02-02T10:19:30.724Z,99793.38
2023-02-02T10:23:47.184Z,99802.34
2023-02-02T10:28:11.691Z,99794.69
2023-02-02T10:32:34.041Z,99783.34
2023-02-02T10:36:57.752Z,99792.56
2023-02-02T10:41:22.885Z,99799.66
2023-02-02T10:45:35.812Z,99804.84
2023-02-02T10:50:00.251Z,99815.91
2023-02-02T10:54:36.217Z,99834.22
2023-02-02T10:59:05.242Z,99819.22
2023-02-02T11:03:20.136Z,99821.59
2023-02-02T11:07:31.625Z,99816.75
2023-02-02T11:11:45.347Z,99819.72
2023-02-02T11:16:16.013Z,99842.72
2023-02-02T11:20:38.759Z,99838.00
2023-02-02T11:24:52.010Z,99835.88
2023-02-02T11:29:03.543Z,99837.19
2023-02-02T11:33:27.395Z,99829.63
2023-02-02T11:37:51.325Z,99834.22
2023-02-02T11:42:18.457Z,99824.66
2023-02-02T11:46:33.981Z,99821.94
2023-02-02T11:50:51.563Z,99815.78
2023-02-02T11:55:14.691Z,99807.91
2023-02-02T11:59:40.868Z,99807.44
2023-02-02T12:04:04.000Z,99800.78
2023-02-02T12:08:15.604Z,99805.75
2023-02-02T12:12:33.261Z,99800.31
2023-02-02T12:16:53.852Z,99812.13
2023-02-02T12:21:11.525Z,99805.50
2023-02-02T12:25:35.114Z,99810.81
2023-02-02T12:30:11.912Z,99801.59
2023-02-02T12:34:37.422Z,99818.97
2023-02-02T12:39:19.511Z,99814.94
2023-02-02T12:43:39.225Z,99823.94
2023-02-02T12:48:12.340Z,99818.50
2023-02-02T12:52:53.257Z,99812.25
2023-02-02T12:57:42.945Z,99812.34
2023-02-02T13:02:08.678Z,99810.94
2023-02-02T13:06:57.935Z,99821.56
2023-02-02T13:11:31.027Z,99816.63
2023-02-02T13:15:46.539Z,99807.16
2023-02-02T13:20:04.441Z,99805.97
2023-02-02T13:24:26.554Z,99807.38
2023-02-02T13:28:50.564Z,99800.06
2023-02-02T13:33:11.462Z,99794.13
2023-02-02T13:37:39.926Z,99802.81
2023-02-02T13:41:52.584Z,99796.38
2023-02-02T13:46:25.714Z,99809.38
2023-02-02T13:50:47.380Z,99802.31
2023-02-02T13:55:15.965Z,99793.78
2023-02-02T13:59:55.065Z,99794.84
2023-02-02T14:04:21.763Z,99785.03
2023-02-02T14:08:33.687Z,99801.09
2023-02-02T14:12:45.190Z,99796.59
2023-02-02T14:16:56.811Z,99800.34
2023-02-02T14:21:08.341Z,99802.38
2023-02-02T14:25:47.581Z,99801.06
2023-02-02T14:30:00.253Z,99807.31
2023-02-02T14:34:26.471Z,99809.84
2023-02-02T14:38:55.094Z,99822.38
2023-02-02T14:43:44.546Z,99829.28
2023-02-02T14:48:01.239Z,99841.94
2023-02-02T14:52:22.336Z,99855.16
2023-02-02T14:56:54.371Z,99856.94
2023-02-02T15:01:11.583Z,99864.06
2023-02-02T15:05:29.089Z,99871.38
2023-02-02T15:09:41.623Z,99875.31
2023-02-02T15:13:59.287Z,99888.88
2023-02-02T15:18:31.139Z,99892.19
2023-02-02T15:22:50.123Z,99904.69
2023-02-02T15:27:02.994Z,99898.09
2023-02-02T15:31:49.618Z,99904.34
2023-02-02T15:36:04.949Z,99906.13
2023-02-02T15:40:22.877Z,99908.72
2023-02-02T15:44:36.938Z,99912.50
2023-02-02T15:49:33.638Z,99910.50
2023-02-02T15:53:49.316Z,99915.56
2023-02-02T15:58:02.170Z,99914.97
2023-02-02T16:02:36.672Z,99921.44
2023-02-02T16:06:49.817Z,99939.13
2023-02-02T16:11:19.985Z,99946.69
2023-02-02T16:15:32.770Z,99953.97
2023-02-02T16:19:45.848Z,99955.38
2023-02-02T16:23:58.173Z,99977.09
2023-02-02T16:28:15.021Z,99983.94
2023-02-02T16:32:32.994Z,99990.31
2023-02-02T16:36:44.719Z,99992.69
2023-02-02T16:41:08.288Z,99999.53
2023-02-02T16:45:43.891Z,99986.25
2023-02-02T16:50:28.697Z,99993.34
2023-02-02T16:54:52.659Z,99996.16
2023-02-02T16:59:16.999Z,100018.28
2023-02-02T17:03:33.857Z,100014.28
2023-02-02T17:07:53.181Z,100025.59
2023-02-02T17:12:30.714Z,100021.25
2023-02-02T17:16:44.586Z,100022.50
2023-02-02T17:20:58.115Z,100026.75
2023-02-02T17:25:30.509Z,100032.88
2023-02-02T17:29:42.003Z,100037.34
2023-02-02T17:33:53.544Z,100032.06
2023-02-02T17:38:05.135Z,100024.38
2023-02-02T17:42:26.342Z,100036.66
2023-02-02T17:46:40.058Z,100026.50
2023-02-02T17:50:51.921Z,100028.94
2023-02-02T17:55:03.807Z,100043.09
2023-02-02T17:59:15.335Z,100039.38
2023-02-02T18:03:30.541Z,100045.28
2023-02-02T18:07:43.825Z,100046.22
2023-02-02T18:11:55.309Z,100053.06
2023-02-02T18:16:07.288Z,100049.88
2023-02-02T18:20:19.075Z,100046.78
2023-02-02T18:24:30.602Z,100050.59
2023-02-02T18:28:42.138Z,100054.00
2023-02-02T18:32:53.620Z,100046.94
2023-02-02T18:37:05.145Z,100057.41
2023-02-02T18:41:18.089Z,100052.03
2023-02-02T18:45:29.595Z,100059.31
2023-02-02T18:49:41.120Z,100057.63
2023-02-02T18:53:59.615Z,100061.78
2023-02-02T18:58:14.251Z,100048.13
2023-02-02T19:02:26.339Z,100050.41
2023-02-02T19:06:56.401Z,100050.59
2023-02-02T19:11:14.539Z,100049.53
2023-02-02T19:15:26.782Z,100040.63
2023-02-02T19:19:40.494Z,100050.59
2023-02-02T19:23:52.232Z,100046.56
2023-02-02T19:28:18.748Z,100036.06
2023-02-02T19:32:32.695Z,100036.78
2023-02-02T19:36:46.811Z,100038.22
2023-02-02T19:41:00.529Z,100043.63
2023-02-02T19:45:22.691Z,100043.13
2023-02-02T19:49:36.101Z,100041.16
2023-02-02T19:53:47.964Z,100048.50
2023-02-02T19:58:16.084Z,100044.34
2023-02-02T20:03:01.969Z,100050.28
2023-02-02T20:07:14.996Z,100057.63
2023-02-02T20:11:35.353Z,100057.63
2023-02-02T20:15:48.713Z,100052.44
2023-02-02T20:20:00.461Z,100061.75
2023-02-02T20:24:19.083Z,100068.47
2023-02-02T20:28:43.303Z,100071.72
2023-02-02T20:32:57.976Z,100058.59
2023-02-02T20:37:12.532Z,100066.31
2023-02-02T20:41:24.408Z,100072.31
2023-02-02T20:45:35.933Z,100061.22
2023-02-02T20:49:47.992Z,100075.34
2023-02-02T20:53:59.451Z,100063.19
2023-02-02T20:58:11.578Z,100077.94
2023-02-02T21:02:25.142Z,100072.31
2023-02-02T21:06:39.275Z,100076.03
2023-02-02T21:10:50.798Z,100074.53
2023-02-02T21:15:03.940Z,100077.94
2023-02-02T21:19:15.478Z,100083.72
2023-02-02T21:23:27.141Z,100086.44
2023-02-02T21:27:41.062Z,100090.69
2023-02-02T21:31:58.580Z,100084.78
2023-02-02T21:36:33.132Z,100085.50
2023-02-02T21:40:46.667Z,100080.31
2023-02-02T21:45:07.425Z,100077.72
2023-02-02T21:49:25.228Z,100072.31
2023-02-02T21:53:36.744Z,100066.41
2023-02-02T21:57:48.248Z,100058.31
2023-02-02T22:01:59.761Z,100058.38
2023-02-02T22:06:21.243Z,100058.19
2023-02-02T22:10:38.783Z,100055.69
2023-02-02T22:14:52.462Z,100061.72
2023-02-02T22:19:23.764Z,100054.63
2023-02-02T22:23:35.291Z,100055.13
2023-02-02T22:27:52.443Z,100060.34
